sensor_id;sensor_type;location;lat;lon;timestamp;temperature;humidity
69626;DHT22;56847;51.984;5.088;2023-02-28T00:01:22;5.50;68.70
69626;DHT22;56847;51.984;5.088;2023-02-28T00:03:49;5.50;68.70
69626;DHT22;56847;51.984;5.088;2023-02-28T00:06:16;5.50;68.90
69626;DHT22;56847;51.984;5.088;2023-02-28T00:08:43;5.40;69.10
69626;DHT22;56847;51.984;5.088;2023-02-28T00:11:13;5.50;69.20
69626;DHT22;56847;51.984;5.088;2023-02-28T00:13:42;5.40;69.20
69626;DHT22;56847;51.984;5.088;2023-02-28T00:16:13;5.40;69.30
69626;DHT22;56847;51.984;5.088;2023-02-28T00:18:41;5.40;69.30
69626;DHT22;56847;51.984;5.088;2023-02-28T00:21:08;5.40;69.40
69626;DHT22;56847;51.984;5.088;2023-02-28T00:23:35;5.50;69.40
69626;DHT22;56847;51.984;5.088;2023-02-28T00:26:03;5.50;69.50
69626;DHT22;56847;51.984;5.088;2023-02-28T00:28:30;5.50;69.50
69626;DHT22;56847;51.984;5.088;2023-02-28T00:30:58;5.50;69.50
69626;DHT22;56847;51.984;5.088;2023-02-28T00:33:28;5.60;69.60
69626;DHT22;56847;51.984;5.088;2023-02-28T00:36:07;5.60;69.70
69626;DHT22;56847;51.984;5.088;2023-02-28T00:38:36;5.60;69.80
69626;DHT22;56847;51.984;5.088;2023-02-28T00:41:03;5.70;69.70
69626;DHT22;56847;51.984;5.088;2023-02-28T00:43:33;5.70;69.70
69626;DHT22;56847;51.984;5.088;2023-02-28T00:46:01;5.80;69.80
69626;DHT22;56847;51.984;5.088;2023-02-28T00:48:29;5.80;69.70
69626;DHT22;56847;51.984;5.088;2023-02-28T00:50:56;5.90;69.70
69626;DHT22;56847;51.984;5.088;2023-02-28T00:53:26;5.90;69.70
69626;DHT22;56847;51.984;5.088;2023-02-28T00:55:53;5.90;69.70
69626;DHT22;56847;51.984;5.088;2023-02-28T00:58:19;6.00;69.70
69626;DHT22;56847;51.984;5.088;2023-02-28T01:00:47;5.90;69.60
69626;DHT22;56847;51.984;5.088;2023-02-28T01:03:18;6.00;69.60
69626;DHT22;56847;51.984;5.088;2023-02-28T01:05:46;6.00;69.60
69626;DHT22;56847;51.984;5.088;2023-02-28T01:08:16;6.00;69.60
69626;DHT22;56847;51.984;5.088;2023-02-28T01:10:43;6.10;69.50
69626;DHT22;56847;51.984;5.088;2023-02-28T01:13:11;6.10;69.50
69626;DHT22;56847;51.984;5.088;2023-02-28T01:15:41;6.10;69.50
69626;DHT22;56847;51.984;5.088;2023-02-28T01:18:10;6.10;69.50
69626;DHT22;56847;51.984;5.088;2023-02-28T01:20:38;6.10;69.40
69626;DHT22;56847;51.984;5.088;2023-02-28T01:23:05;6.20;69.50
69626;DHT22;56847;51.984;5.088;2023-02-28T01:25:37;6.20;69.50
69626;DHT22;56847;51.984;5.088;2023-02-28T01:28:04;6.20;69.50
69626;DHT22;56847;51.984;5.088;2023-02-28T01:30:32;6.20;69.40
69626;DHT22;56847;51.984;5.088;2023-02-28T01:32:59;6.20;69.50
69626;DHT22;56847;51.984;5.088;2023-02-28T01:35:32;6.20;69.50
69626;DHT22;56847;51.984;5.088;2023-02-28T01:38:00;6.20;69.50
69626;DHT22;56847;51.984;5.088;2023-02-28T01:40:47;6.20;69.50
69626;DHT22;56847;51.984;5.088;2023-02-28T01:43:23;6.20;69.50
69626;DHT22;56847;51.984;5.088;2023-02-28T01:45:52;6.20;69.50
69626;DHT22;56847;51.984;5.088;2023-02-28T01:48:22;6.20;69.60
69626;DHT22;56847;51.984;5.088;2023-02-28T01:50:53;6.20;69.60
69626;DHT22;56847;51.984;5.088;2023-02-28T01:53:26;6.20;69.60
69626;DHT22;56847;51.984;5.088;2023-02-28T01:55:56;6.30;69.60
69626;DHT22;56847;51.984;5.088;2023-02-28T01:58:24;6.30;69.60
69626;DHT22;56847;51.984;5.088;2023-02-28T02:00:51;6.30;69.60
69626;DHT22;56847;51.984;5.088;2023-02-28T02:03:19;6.30;69.60
69626;DHT22;56847;51.984;5.088;2023-02-28T02:05:47;6.30;69.60
69626;DHT22;56847;51.984;5.088;2023-02-28T02:08:17;6.30;69.60
69626;DHT22;56847;51.984;5.088;2023-02-28T02:11:00;6.30;69.70
69626;DHT22;56847;51.984;5.088;2023-02-28T02:19:39;6.40;69.60
69626;DHT22;56847;51.984;5.088;2023-02-28T02:25:08;6.40;69.50
69626;DHT22;56847;51.984;5.088;2023-02-28T02:27:56;6.40;69.50
69626;DHT22;56847;51.984;5.088;2023-02-28T02:33:45;6.40;69.50
69626;DHT22;56847;51.984;5.088;2023-02-28T02:36:48;6.40;69.50
69626;DHT22;56847;51.984;5.088;2023-02-28T02:39:27;6.50;69.50
69626;DHT22;56847;51.984;5.088;2023-02-28T02:42:01;6.50;69.50
69626;DHT22;56847;51.984;5.088;2023-02-28T02:44:50;6.50;69.40
69626;DHT22;56847;51.984;5.088;2023-02-28T02:47:24;6.40;69.40
69626;DHT22;56847;51.984;5.088;2023-02-28T02:49:55;6.50;69.40
69626;DHT22;56847;51.984;5.088;2023-02-28T02:52:30;6.40;69.30
69626;DHT22;56847;51.984;5.088;2023-02-28T02:54:59;6.40;69.40
69626;DHT22;56847;51.984;5.088;2023-02-28T02:57:32;6.40;69.40
69626;DHT22;56847;51.984;5.088;2023-02-28T03:00:02;6.40;69.40
69626;DHT22;56847;51.984;5.088;2023-02-28T03:02:32;6.40;69.50
69626;DHT22;56847;51.984;5.088;2023-02-28T03:05:14;6.40;69.50
69626;DHT22;56847;51.984;5.088;2023-02-28T03:07:44;6.40;69.50
69626;DHT22;56847;51.984;5.088;2023-02-28T03:10:41;6.40;69.50
69626;DHT22;56847;51.984;5.088;2023-02-28T03:16:22;6.40;69.50
69626;DHT22;56847;51.984;5.088;2023-02-28T03:21:55;6.40;69.60
69626;DHT22;56847;51.984;5.088;2023-02-28T03:27:06;6.40;69.60
69626;DHT22;56847;51.984;5.088;2023-02-28T03:29:37;6.40;69.60
69626;DHT22;56847;51.984;5.088;2023-02-28T03:32:25;6.50;69.60
69626;DHT22;56847;51.984;5.088;2023-02-28T03:37:36;6.50;69.60
69626;DHT22;56847;51.984;5.088;2023-02-28T03:42:37;6.50;69.70
69626;DHT22;56847;51.984;5.088;2023-02-28T03:45:11;6.50;69.70
69626;DHT22;56847;51.984;5.088;2023-02-28T03:47:44;6.50;69.70
69626;DHT22;56847;51.984;5.088;2023-02-28T03:50:51;6.50;69.70
69626;DHT22;56847;51.984;5.088;2023-02-28T03:53:18;6.50;69.80
69626;DHT22;56847;51.984;5.088;2023-02-28T03:55:49;6.50;69.70
69626;DHT22;56847;51.984;5.088;2023-02-28T03:58:27;6.50;69.70
69626;DHT22;56847;51.984;5.088;2023-02-28T04:01:01;6.50;69.80
69626;DHT22;56847;51.984;5.088;2023-02-28T04:03:36;6.40;69.90
69626;DHT22;56847;51.984;5.088;2023-02-28T04:06:04;6.40;69.90
69626;DHT22;56847;51.984;5.088;2023-02-28T04:08:32;6.40;69.90
69626;DHT22;56847;51.984;5.088;2023-02-28T04:11:21;6.40;70.00
69626;DHT22;56847;51.984;5.088;2023-02-28T04:13:48;6.40;70.10
69626;DHT22;56847;51.984;5.088;2023-02-28T04:16:16;6.40;70.10
69626;DHT22;56847;51.984;5.088;2023-02-28T04:19:00;6.40;70.10
69626;DHT22;56847;51.984;5.088;2023-02-28T04:21:37;6.50;70.10
69626;DHT22;56847;51.984;5.088;2023-02-28T04:24:07;6.40;70.10
69626;DHT22;56847;51.984;5.088;2023-02-28T04:26:38;6.40;70.20
69626;DHT22;56847;51.984;5.088;2023-02-28T04:29:07;6.40;70.20
69626;DHT22;56847;51.984;5.088;2023-02-28T04:31:34;6.40;70.20
69626;DHT22;56847;51.984;5.088;2023-02-28T04:34:01;6.40;70.30
69626;DHT22;56847;51.984;5.088;2023-02-28T04:36:28;6.40;70.20
69626;DHT22;56847;51.984;5.088;2023-02-28T04:38:55;6.40;70.20
69626;DHT22;56847;51.984;5.088;2023-02-28T04:41:23;6.40;70.20
69626;DHT22;56847;51.984;5.088;2023-02-28T04:43:53;6.30;70.10
69626;DHT22;56847;51.984;5.088;2023-02-28T04:46:20;6.30;70.00
69626;DHT22;56847;51.984;5.088;2023-02-28T04:48:47;6.30;69.90
69626;DHT22;56847;51.984;5.088;2023-02-28T04:51:16;6.30;69.70
69626;DHT22;56847;51.984;5.088;2023-02-28T04:53:44;6.30;69.70
69626;DHT22;56847;51.984;5.088;2023-02-28T04:56:15;6.30;69.60
69626;DHT22;56847;51.984;5.088;2023-02-28T04:58:43;6.30;69.30
69626;DHT22;56847;51.984;5.088;2023-02-28T05:03:45;6.20;69.10
69626;DHT22;56847;51.984;5.088;2023-02-28T05:06:15;6.20;68.80
69626;DHT22;56847;51.984;5.088;2023-02-28T05:08:42;6.20;68.90
69626;DHT22;56847;51.984;5.088;2023-02-28T05:11:21;6.20;68.70
69626;DHT22;56847;51.984;5.088;2023-02-28T05:13:49;6.20;68.40
69626;DHT22;56847;51.984;5.088;2023-02-28T05:16:16;6.20;68.40
69626;DHT22;56847;51.984;5.088;2023-02-28T05:18:44;6.20;68.10
69626;DHT22;56847;51.984;5.088;2023-02-28T05:21:32;6.10;68.20
69626;DHT22;56847;51.984;5.088;2023-02-28T05:24:11;6.10;68.40
69626;DHT22;56847;51.984;5.088;2023-02-28T05:26:40;6.10;68.30
69626;DHT22;56847;51.984;5.088;2023-02-28T05:29:08;6.10;68.30
69626;DHT22;56847;51.984;5.088;2023-02-28T05:31:36;6.10;68.40
69626;DHT22;56847;51.984;5.088;2023-02-28T05:34:03;6.10;68.50
69626;DHT22;56847;51.984;5.088;2023-02-28T05:36:33;6.10;68.50
69626;DHT22;56847;51.984;5.088;2023-02-28T05:39:00;6.00;68.50
69626;DHT22;56847;51.984;5.088;2023-02-28T05:41:30;6.00;68.70
69626;DHT22;56847;51.984;5.088;2023-02-28T05:43:57;6.00;68.80
69626;DHT22;56847;51.984;5.088;2023-02-28T05:46:26;6.00;68.90
69626;DHT22;56847;51.984;5.088;2023-02-28T05:48:53;6.00;69.00
69626;DHT22;56847;51.984;5.088;2023-02-28T05:51:20;6.00;69.10
69626;DHT22;56847;51.984;5.088;2023-02-28T05:53:47;6.00;69.10
69626;DHT22;56847;51.984;5.088;2023-02-28T05:56:17;6.00;69.10
69626;DHT22;56847;51.984;5.088;2023-02-28T05:58:44;6.00;69.20
69626;DHT22;56847;51.984;5.088;2023-02-28T06:01:31;6.00;69.20
69626;DHT22;56847;51.984;5.088;2023-02-28T06:03:59;6.00;69.20
69626;DHT22;56847;51.984;5.088;2023-02-28T06:06:27;6.00;69.30
69626;DHT22;56847;51.984;5.088;2023-02-28T06:08:54;6.00;69.30
69626;DHT22;56847;51.984;5.088;2023-02-28T06:11:21;6.00;69.40
69626;DHT22;56847;51.984;5.088;2023-02-28T06:13:55;6.00;69.40
69626;DHT22;56847;51.984;5.088;2023-02-28T06:16:23;6.00;69.30
69626;DHT22;56847;51.984;5.088;2023-02-28T06:18:50;6.00;69.30
69626;DHT22;56847;51.984;5.088;2023-02-28T06:21:19;6.00;69.40
69626;DHT22;56847;51.984;5.088;2023-02-28T06:23:45;6.00;69.40
69626;DHT22;56847;51.984;5.088;2023-02-28T06:26:12;6.00;69.40
69626;DHT22;56847;51.984;5.088;2023-02-28T06:28:40;6.00;69.50
69626;DHT22;56847;51.984;5.088;2023-02-28T06:31:11;5.90;69.50
69626;DHT22;56847;51.984;5.088;2023-02-28T06:33:39;5.90;69.70
69626;DHT22;56847;51.984;5.088;2023-02-28T06:36:07;5.90;69.70
69626;DHT22;56847;51.984;5.088;2023-02-28T06:38:34;5.90;69.80
69626;DHT22;56847;51.984;5.088;2023-02-28T06:41:02;5.90;69.90
69626;DHT22;56847;51.984;5.088;2023-02-28T06:43:33;5.90;70.00
69626;DHT22;56847;51.984;5.088;2023-02-28T06:46:01;6.00;70.00
69626;DHT22;56847;51.984;5.088;2023-02-28T06:48:29;6.00;70.10
69626;DHT22;56847;51.984;5.088;2023-02-28T06:51:10;6.00;70.20
69626;DHT22;56847;51.984;5.088;2023-02-28T06:53:37;6.00;70.20
69626;DHT22;56847;51.984;5.088;2023-02-28T06:56:06;6.00;70.20
69626;DHT22;56847;51.984;5.088;2023-02-28T06:58:34;6.00;70.20
69626;DHT22;56847;51.984;5.088;2023-02-28T07:01:01;6.10;70.20
69626;DHT22;56847;51.984;5.088;2023-02-28T07:03:29;6.00;70.40
69626;DHT22;56847;51.984;5.088;2023-02-28T07:05:58;6.00;70.60
69626;DHT22;56847;51.984;5.088;2023-02-28T07:08:26;5.90;70.70
69626;DHT22;56847;51.984;5.088;2023-02-28T07:10:54;5.90;70.90
69626;DHT22;56847;51.984;5.088;2023-02-28T07:13:24;6.00;71.00
69626;DHT22;56847;51.984;5.088;2023-02-28T07:15:59;6.00;71.00
69626;DHT22;56847;51.984;5.088;2023-02-28T07:18:27;6.00;71.10
69626;DHT22;56847;51.984;5.088;2023-02-28T07:20:54;6.10;71.20
69626;DHT22;56847;51.984;5.088;2023-02-28T07:23:21;6.10;71.10
69626;DHT22;56847;51.984;5.088;2023-02-28T07:25:50;6.10;71.00
69626;DHT22;56847;51.984;5.088;2023-02-28T07:28:21;6.20;71.10
69626;DHT22;56847;51.984;5.088;2023-02-28T07:30:48;6.20;71.10
69626;DHT22;56847;51.984;5.088;2023-02-28T07:33:15;6.20;71.10
69626;DHT22;56847;51.984;5.088;2023-02-28T07:35:43;6.20;71.10
69626;DHT22;56847;51.984;5.088;2023-02-28T07:38:10;6.20;71.20
69626;DHT22;56847;51.984;5.088;2023-02-28T07:40:38;6.20;71.20
69626;DHT22;56847;51.984;5.088;2023-02-28T07:43:07;6.30;71.30
69626;DHT22;56847;51.984;5.088;2023-02-28T07:45:34;6.30;71.30
69626;DHT22;56847;51.984;5.088;2023-02-28T07:48:01;6.30;71.40
69626;DHT22;56847;51.984;5.088;2023-02-28T07:50:29;6.40;71.50
69626;DHT22;56847;51.984;5.088;2023-02-28T07:52:58;6.40;71.40
69626;DHT22;56847;51.984;5.088;2023-02-28T07:55:25;6.40;71.50
69626;DHT22;56847;51.984;5.088;2023-02-28T07:57:52;6.40;71.60
69626;DHT22;56847;51.984;5.088;2023-02-28T08:00:19;6.40;71.60
69626;DHT22;56847;51.984;5.088;2023-02-28T08:02:46;6.40;71.60
69626;DHT22;56847;51.984;5.088;2023-02-28T08:05:13;6.50;71.60
69626;DHT22;56847;51.984;5.088;2023-02-28T08:07:39;6.50;71.60
69626;DHT22;56847;51.984;5.088;2023-02-28T08:10:17;6.50;71.70
69626;DHT22;56847;51.984;5.088;2023-02-28T08:12:44;6.50;71.60
69626;DHT22;56847;51.984;5.088;2023-02-28T08:15:11;6.50;71.40
69626;DHT22;56847;51.984;5.088;2023-02-28T08:17:38;6.50;71.60
69626;DHT22;56847;51.984;5.088;2023-02-28T08:20:06;6.60;71.70
69626;DHT22;56847;51.984;5.088;2023-02-28T08:22:33;6.60;71.60
69626;DHT22;56847;51.984;5.088;2023-02-28T08:25:00;6.70;71.70
69626;DHT22;56847;51.984;5.088;2023-02-28T08:27:27;6.70;71.80
69626;DHT22;56847;51.984;5.088;2023-02-28T08:29:53;6.80;71.80
69626;DHT22;56847;51.984;5.088;2023-02-28T08:32:20;6.90;71.40
69626;DHT22;56847;51.984;5.088;2023-02-28T08:34:56;6.90;71.40
69626;DHT22;56847;51.984;5.088;2023-02-28T08:37:23;6.90;71.30
69626;DHT22;56847;51.984;5.088;2023-02-28T08:39:50;6.90;71.40
69626;DHT22;56847;51.984;5.088;2023-02-28T08:42:22;6.90;71.30
69626;DHT22;56847;51.984;5.088;2023-02-28T08:44:56;7.00;70.90
69626;DHT22;56847;51.984;5.088;2023-02-28T08:47:24;6.90;70.60
69626;DHT22;56847;51.984;5.088;2023-02-28T08:49:51;6.90;70.60
69626;DHT22;56847;51.984;5.088;2023-02-28T08:52:18;6.90;70.70
69626;DHT22;56847;51.984;5.088;2023-02-28T08:54:50;7.00;70.80
69626;DHT22;56847;51.984;5.088;2023-02-28T08:57:17;7.10;70.70
69626;DHT22;56847;51.984;5.088;2023-02-28T08:59:44;7.10;70.60
69626;DHT22;56847;51.984;5.088;2023-02-28T09:02:13;7.20;70.50
69626;DHT22;56847;51.984;5.088;2023-02-28T09:04:41;7.20;70.30
69626;DHT22;56847;51.984;5.088;2023-02-28T09:07:08;7.20;70.20
69626;DHT22;56847;51.984;5.088;2023-02-28T09:09:35;7.20;70.10
69626;DHT22;56847;51.984;5.088;2023-02-28T09:12:02;7.30;70.00
69626;DHT22;56847;51.984;5.088;2023-02-28T09:14:29;7.30;70.00
69626;DHT22;56847;51.984;5.088;2023-02-28T09:16:56;7.40;69.60
69626;DHT22;56847;51.984;5.088;2023-02-28T09:19:26;7.40;69.60
69626;DHT22;56847;51.984;5.088;2023-02-28T09:21:53;7.50;69.50
69626;DHT22;56847;51.984;5.088;2023-02-28T09:24:20;7.60;69.40
69626;DHT22;56847;51.984;5.088;2023-02-28T09:26:47;7.60;69.30
69626;DHT22;56847;51.984;5.088;2023-02-28T09:29:31;7.70;68.30
69626;DHT22;56847;51.984;5.088;2023-02-28T09:31:58;7.70;67.70
69626;DHT22;56847;51.984;5.088;2023-02-28T09:34:26;7.70;67.60
69626;DHT22;56847;51.984;5.088;2023-02-28T09:36:53;7.80;67.70
69626;DHT22;56847;51.984;5.088;2023-02-28T09:39:22;7.90;67.50
69626;DHT22;56847;51.984;5.088;2023-02-28T09:41:52;8.00;66.80
69626;DHT22;56847;51.984;5.088;2023-02-28T09:46:55;8.30;65.70
69626;DHT22;56847;51.984;5.088;2023-02-28T09:49:28;8.30;64.60
69626;DHT22;56847;51.984;5.088;2023-02-28T09:52:05;8.30;64.70
69626;DHT22;56847;51.984;5.088;2023-02-28T09:54:36;8.40;65.00
69626;DHT22;56847;51.984;5.088;2023-02-28T10:00:30;8.60;63.30
69626;DHT22;56847;51.984;5.088;2023-02-28T10:09:02;9.00;60.30
69626;DHT22;56847;51.984;5.088;2023-02-28T10:11:33;9.00;58.40
69626;DHT22;56847;51.984;5.088;2023-02-28T10:16:39;9.10;58.40
69626;DHT22;56847;51.984;5.088;2023-02-28T10:19:30;9.20;57.30
69626;DHT22;56847;51.984;5.088;2023-02-28T10:22:11;9.20;56.20
69626;DHT22;56847;51.984;5.088;2023-02-28T10:24:47;9.10;56.80
69626;DHT22;56847;51.984;5.088;2023-02-28T10:27:18;9.10;56.40
69626;DHT22;56847;51.984;5.088;2023-02-28T10:29:52;9.00;56.30
69626;DHT22;56847;51.984;5.088;2023-02-28T10:32:22;9.00;55.20
69626;DHT22;56847;51.984;5.088;2023-02-28T10:37:42;9.20;54.50
69626;DHT22;56847;51.984;5.088;2023-02-28T10:46:35;9.40;53.80
69626;DHT22;56847;51.984;5.088;2023-02-28T10:49:02;9.30;53.20
69626;DHT22;56847;51.984;5.088;2023-02-28T10:51:40;9.10;52.20
69626;DHT22;56847;51.984;5.088;2023-02-28T10:54:16;9.00;52.10
69626;DHT22;56847;51.984;5.088;2023-02-28T10:56:44;8.90;51.30
69626;DHT22;56847;51.984;5.088;2023-02-28T10:59:28;9.00;50.80
69626;DHT22;56847;51.984;5.088;2023-02-28T11:01:56;9.20;51.40
69626;DHT22;56847;51.984;5.088;2023-02-28T11:09:35;9.70;51.00
69626;DHT22;56847;51.984;5.088;2023-02-28T11:12:26;9.70;50.60
69626;DHT22;56847;51.984;5.088;2023-02-28T11:14:59;9.70;49.60
69626;DHT22;56847;51.984;5.088;2023-02-28T11:17:29;9.70;49.70
69626;DHT22;56847;51.984;5.088;2023-02-28T11:20:05;9.70;49.90
69626;DHT22;56847;51.984;5.088;2023-02-28T11:22:37;9.80;49.80
69626;DHT22;56847;51.984;5.088;2023-02-28T11:25:16;9.80;49.10
69626;DHT22;56847;51.984;5.088;2023-02-28T11:27:49;9.80;49.10
69626;DHT22;56847;51.984;5.088;2023-02-28T11:30:42;9.90;48.60
69626;DHT22;56847;51.984;5.088;2023-02-28T11:35:57;10.00;47.10
69626;DHT22;56847;51.984;5.088;2023-02-28T11:38:26;9.90;47.60
69626;DHT22;56847;51.984;5.088;2023-02-28T11:52:22;10.20;48.20
69626;DHT22;56847;51.984;5.088;2023-02-28T11:55:27;10.20;48.00
69626;DHT22;56847;51.984;5.088;2023-02-28T11:58:17;10.30;47.30
69626;DHT22;56847;51.984;5.088;2023-02-28T12:06:25;10.30;47.10
69626;DHT22;56847;51.984;5.088;2023-02-28T12:23:15;10.30;46.30
69626;DHT22;56847;51.984;5.088;2023-02-28T12:28:33;10.30;45.60
69626;DHT22;56847;51.984;5.088;2023-02-28T12:31:17;10.40;46.30
69626;DHT22;56847;51.984;5.088;2023-02-28T12:33:50;10.40;45.30
69626;DHT22;56847;51.984;5.088;2023-02-28T12:36:19;10.30;45.40
69626;DHT22;56847;51.984;5.088;2023-02-28T12:38:57;10.30;45.20
69626;DHT22;56847;51.984;5.088;2023-02-28T12:41:48;10.30;45.90
69626;DHT22;56847;51.984;5.088;2023-02-28T12:44:22;10.30;45.10
69626;DHT22;56847;51.984;5.088;2023-02-28T12:46:53;10.30;45.70
69626;DHT22;56847;51.984;5.088;2023-02-28T12:49:30;10.30;46.40
69626;DHT22;56847;51.984;5.088;2023-02-28T12:52:00;10.30;46.40
69626;DHT22;56847;51.984;5.088;2023-02-28T12:54:46;10.20;46.40
69626;DHT22;56847;51.984;5.088;2023-02-28T12:58:03;10.10;45.30
69626;DHT22;56847;51.984;5.088;2023-02-28T13:00:36;10.10;45.00
69626;DHT22;56847;51.984;5.088;2023-02-28T13:09:03;10.10;46.50
69626;DHT22;56847;51.984;5.088;2023-02-28T13:11:40;10.10;45.80
69626;DHT22;56847;51.984;5.088;2023-02-28T13:19:55;10.00;45.90
69626;DHT22;56847;51.984;5.088;2023-02-28T13:24:53;10.00;46.00
69626;DHT22;56847;51.984;5.088;2023-02-28T13:29:54;9.90;45.40
69626;DHT22;56847;51.984;5.088;2023-02-28T13:39:55;9.80;45.80
69626;DHT22;56847;51.984;5.088;2023-02-28T13:47:51;9.80;45.50
69626;DHT22;56847;51.984;5.088;2023-02-28T13:55:48;9.70;46.50
69626;DHT22;56847;51.984;5.088;2023-02-28T14:04:03;9.70;46.70
69626;DHT22;56847;51.984;5.088;2023-02-28T14:06:34;9.70;46.30
69626;DHT22;56847;51.984;5.088;2023-02-28T14:15:23;10.20;45.20
69626;DHT22;56847;51.984;5.088;2023-02-28T14:17:55;10.50;43.70
69626;DHT22;56847;51.984;5.088;2023-02-28T14:20:26;10.70;43.70
69626;DHT22;56847;51.984;5.088;2023-02-28T14:23:14;10.70;43.00
69626;DHT22;56847;51.984;5.088;2023-02-28T14:25:45;10.60;41.50
69626;DHT22;56847;51.984;5.088;2023-02-28T14:31:10;10.00;42.30
69626;DHT22;56847;51.984;5.088;2023-02-28T14:33:57;9.80;44.00
69626;DHT22;56847;51.984;5.088;2023-02-28T14:36:35;9.80;44.80
69626;DHT22;56847;51.984;5.088;2023-02-28T14:41:42;10.50;42.50
69626;DHT22;56847;51.984;5.088;2023-02-28T14:44:25;11.10;41.20
69626;DHT22;56847;51.984;5.088;2023-02-28T14:46:54;11.30;41.20
69626;DHT22;56847;51.984;5.088;2023-02-28T14:49:28;10.90;40.50
69626;DHT22;56847;51.984;5.088;2023-02-28T14:52:16;10.50;40.90
69626;DHT22;56847;51.984;5.088;2023-02-28T14:54:44;10.10;41.60
69626;DHT22;56847;51.984;5.088;2023-02-28T14:57:26;9.90;42.20
69626;DHT22;56847;51.984;5.088;2023-02-28T15:00:22;9.70;43.50
69626;DHT22;56847;51.984;5.088;2023-02-28T15:02:49;9.60;43.60
69626;DHT22;56847;51.984;5.088;2023-02-28T15:05:23;9.50;42.40
69626;DHT22;56847;51.984;5.088;2023-02-28T15:08:15;9.40;42.70
69626;DHT22;56847;51.984;5.088;2023-02-28T15:10:44;9.30;42.60
69626;DHT22;56847;51.984;5.088;2023-02-28T15:13:14;9.30;42.30
69626;DHT22;56847;51.984;5.088;2023-02-28T15:15:55;9.30;42.60
69626;DHT22;56847;51.984;5.088;2023-02-28T15:18:42;9.20;43.30
69626;DHT22;56847;51.984;5.088;2023-02-28T15:21:17;9.30;43.60
69626;DHT22;56847;51.984;5.088;2023-02-28T15:23:49;9.30;43.50
69626;DHT22;56847;51.984;5.088;2023-02-28T15:26:20;9.30;43.40
69626;DHT22;56847;51.984;5.088;2023-02-28T15:29:01;9.30;43.10
69626;DHT22;56847;51.984;5.088;2023-02-28T15:31:29;9.20;42.80
69626;DHT22;56847;51.984;5.088;2023-02-28T15:37:39;9.20;42.40
69626;DHT22;56847;51.984;5.088;2023-02-28T15:40:26;9.20;42.10
69626;DHT22;56847;51.984;5.088;2023-02-28T15:43:05;9.10;42.20
69626;DHT22;56847;51.984;5.088;2023-02-28T15:45:59;9.10;42.60
69626;DHT22;56847;51.984;5.088;2023-02-28T15:53:41;9.10;43.30
69626;DHT22;56847;51.984;5.088;2023-02-28T15:56:25;9.10;43.70
69626;DHT22;56847;51.984;5.088;2023-02-28T15:59:00;9.00;43.20
69626;DHT22;56847;51.984;5.088;2023-02-28T16:01:30;9.00;42.70
69626;DHT22;56847;51.984;5.088;2023-02-28T16:04:04;9.00;42.60
69626;DHT22;56847;51.984;5.088;2023-02-28T16:06:39;8.90;43.50
69626;DHT22;56847;51.984;5.088;2023-02-28T16:09:13;8.90;43.90
69626;DHT22;56847;51.984;5.088;2023-02-28T16:11:49;9.00;43.80
69626;DHT22;56847;51.984;5.088;2023-02-28T16:14:27;8.90;43.50
69626;DHT22;56847;51.984;5.088;2023-02-28T16:17:03;8.90;43.90
69626;DHT22;56847;51.984;5.088;2023-02-28T16:19:30;8.90;44.40
69626;DHT22;56847;51.984;5.088;2023-02-28T16:22:00;8.90;44.60
69626;DHT22;56847;51.984;5.088;2023-02-28T16:24:27;8.90;43.90
69626;DHT22;56847;51.984;5.088;2023-02-28T16:26:55;8.80;44.10
69626;DHT22;56847;51.984;5.088;2023-02-28T16:29:30;8.80;43.90
69626;DHT22;56847;51.984;5.088;2023-02-28T16:31:57;8.80;43.60
69626;DHT22;56847;51.984;5.088;2023-02-28T16:34:24;8.70;44.40
69626;DHT22;56847;51.984;5.088;2023-02-28T16:36:51;8.70;44.20
69626;DHT22;56847;51.984;5.088;2023-02-28T16:39:18;8.70;44.20
69626;DHT22;56847;51.984;5.088;2023-02-28T16:41:48;8.70;44.70
69626;DHT22;56847;51.984;5.088;2023-02-28T16:44:31;8.70;45.20
69626;DHT22;56847;51.984;5.088;2023-02-28T16:47:03;8.60;45.40
69626;DHT22;56847;51.984;5.088;2023-02-28T16:49:30;8.60;45.30
69626;DHT22;56847;51.984;5.088;2023-02-28T16:51:57;8.60;45.30
69626;DHT22;56847;51.984;5.088;2023-02-28T16:54:24;8.50;45.30
69626;DHT22;56847;51.984;5.088;2023-02-28T16:56:54;8.50;45.60
69626;DHT22;56847;51.984;5.088;2023-02-28T16:59:23;8.50;45.80
69626;DHT22;56847;51.984;5.088;2023-02-28T17:01:51;8.40;45.90
69626;DHT22;56847;51.984;5.088;2023-02-28T17:04:19;8.30;46.20
69626;DHT22;56847;51.984;5.088;2023-02-28T17:06:46;8.30;46.30
69626;DHT22;56847;51.984;5.088;2023-02-28T17:09:23;8.30;46.30
69626;DHT22;56847;51.984;5.088;2023-02-28T17:12:06;8.20;46.60
69626;DHT22;56847;51.984;5.088;2023-02-28T17:14:33;8.20;46.80
69626;DHT22;56847;51.984;5.088;2023-02-28T17:17:00;8.10;46.90
69626;DHT22;56847;51.984;5.088;2023-02-28T17:19:27;8.10;46.90
69626;DHT22;56847;51.984;5.088;2023-02-28T17:21:54;8.00;47.20
69626;DHT22;56847;51.984;5.088;2023-02-28T17:24:21;8.00;47.40
69626;DHT22;56847;51.984;5.088;2023-02-28T17:26:57;7.90;47.70
69626;DHT22;56847;51.984;5.088;2023-02-28T17:29:24;7.90;47.80
69626;DHT22;56847;51.984;5.088;2023-02-28T17:31:51;7.80;47.80
69626;DHT22;56847;51.984;5.088;2023-02-28T17:34:18;7.80;47.70
69626;DHT22;56847;51.984;5.088;2023-02-28T17:36:47;7.70;47.90
69626;DHT22;56847;51.984;5.088;2023-02-28T17:39:16;7.70;48.00
69626;DHT22;56847;51.984;5.088;2023-02-28T17:41:54;7.70;48.00
69626;DHT22;56847;51.984;5.088;2023-02-28T17:44:23;7.60;48.00
69626;DHT22;56847;51.984;5.088;2023-02-28T17:46:51;7.60;48.20
69626;DHT22;56847;51.984;5.088;2023-02-28T17:49:18;7.60;48.30
69626;DHT22;56847;51.984;5.088;2023-02-28T17:51:46;7.50;48.50
69626;DHT22;56847;51.984;5.088;2023-02-28T17:54:13;7.50;48.70
69626;DHT22;56847;51.984;5.088;2023-02-28T17:56:41;7.40;48.90
69626;DHT22;56847;51.984;5.088;2023-02-28T17:59:10;7.40;49.00
69626;DHT22;56847;51.984;5.088;2023-02-28T18:01:39;7.40;49.00
69626;DHT22;56847;51.984;5.088;2023-02-28T18:04:06;7.30;49.10
69626;DHT22;56847;51.984;5.088;2023-02-28T18:06:44;7.30;49.20
69626;DHT22;56847;51.984;5.088;2023-02-28T18:09:19;7.30;49.30
69626;DHT22;56847;51.984;5.088;2023-02-28T18:11:53;7.20;49.40
69626;DHT22;56847;51.984;5.088;2023-02-28T18:14:23;7.20;49.50
69626;DHT22;56847;51.984;5.088;2023-02-28T18:16:51;7.20;49.60
69626;DHT22;56847;51.984;5.088;2023-02-28T18:19:19;7.10;49.80
69626;DHT22;56847;51.984;5.088;2023-02-28T18:21:48;7.10;49.80
69626;DHT22;56847;51.984;5.088;2023-02-28T18:24:20;7.10;49.80
69626;DHT22;56847;51.984;5.088;2023-02-28T18:26:49;7.00;49.90
69626;DHT22;56847;51.984;5.088;2023-02-28T18:29:25;7.00;50.00
69626;DHT22;56847;51.984;5.088;2023-02-28T18:31:55;7.00;50.10
69626;DHT22;56847;51.984;5.088;2023-02-28T18:34:24;6.90;50.40
69626;DHT22;56847;51.984;5.088;2023-02-28T18:36:54;6.90;50.70
69626;DHT22;56847;51.984;5.088;2023-02-28T18:39:22;6.90;50.90
69626;DHT22;56847;51.984;5.088;2023-02-28T18:41:49;6.80;51.10
69626;DHT22;56847;51.984;5.088;2023-02-28T18:44:18;6.80;51.20
69626;DHT22;56847;51.984;5.088;2023-02-28T18:46:48;6.80;51.30
69626;DHT22;56847;51.984;5.088;2023-02-28T18:49:16;6.70;51.60